Asbury, New Jersey
Current Conditions -  °F | °C
As of 7:53 PM on Monday 20 Oct 2014 (Local Time) from KSMQ Reporting Station
Clear Clear  
Wind Chill: 45°   Ceiling: Unl
Heat Index: 45°   Visibility: 10mi
Dew Point: 39°   Wind: 0mph
Humidity: 80%   Direction: NA
Pressure: 29.97"   Gusts: NA
Location:  40.7°N, 75.01°W
Report Text: KSMQ 202353Z AUTO 00000KT 10SM CLR 07/04 A2997 RMK AO2 SLP149 T00720039 10167 20072 53004
Loading
Personal Weather Stations






























Interactive Weather Map
Tropical Storm Tracking
New forecast layout! Learn more

10-Day Weather Forecast

Advertisements
Track Severe Weather on mobile